Time;durP1;ratioP1;P1;durP2;ratioP2;P2;SDS_P1;SDS_P2;PMS_P1;PMS_P2;Temp;Humidity;BMP_temperature;BMP_pressure;BME280_temperature;BME280_humidity;BME280_pressure;Samples;Min_cycle;Max_cycle;Signal;HPM_P1;HPM_P2
2022/12/05 00:02:03;;;;;;;6.60;4.10;;;;;;;2.33;91.44;101990.25;5076915;27;96644;-31
2022/12/05 00:04:28;;;;;;;9.05;4.53;;;;;;;2.33;92.04;101992.94;5077600;27;96793;-31
2022/12/05 00:06:54;;;;;;;18.52;4.43;;;;;;;2.35;92.41;101988.47;5076766;27;109557;-31
2022/12/05 00:09:19;;;;;;;3.38;2.33;;;;;;;2.38;92.32;101995.56;5076957;27;101843;-31
2022/12/05 00:11:45;;;;;;;8.45;5.15;;;;;;;2.38;92.06;101999.13;5077127;27;96458;-31
2022/12/05 00:14:12;;;;;;;8.98;4.72;;;;;;;2.40;92.05;101991.97;5077240;27;96876;-31
2022/12/05 00:16:39;;;;;;;9.48;4.72;;;;;;;2.40;92.37;101994.66;5058475;27;100807;-30
2022/12/05 00:19:06;;;;;;;7.45;4.13;;;;;;;2.40;92.51;101993.78;5058500;27;100367;-31
2022/12/05 00:21:34;;;;;;;6.90;2.95;;;;;;;2.40;92.66;101994.66;5058176;27;96800;-30
2022/12/05 00:24:01;;;;;;;10.85;3.75;;;;;;;2.44;92.31;101990.19;5058601;27;96817;-32
2022/12/05 00:26:27;;;;;;;4.57;3.35;;;;;;;2.45;92.04;101991.94;5057731;27;101286;-31
2022/12/05 00:28:53;;;;;;;6.45;3.65;;;;;;;2.44;92.28;101987.50;5057266;27;101419;-33
2022/12/05 00:31:21;;;;;;;11.48;5.57;;;;;;;2.46;92.28;101994.59;5058407;27;96555;-31
2022/12/05 00:33:47;;;;;;;5.68;2.60;;;;;;;2.48;92.16;101991.91;5058520;27;96765;-32
2022/12/05 00:36:22;;;;;;;8.23;4.90;;;;;;;2.50;92.02;101992.78;5076466;27;99274;-31
2022/12/05 00:38:47;;;;;;;5.53;3.60;;;;;;;2.51;91.98;102000.78;5076524;27;97389;-31
2022/12/05 00:41:15;;;;;;;5.10;3.60;;;;;;;2.51;92.25;101995.44;5077026;27;96814;-31
2022/12/05 00:43:41;;;;;;;11.05;5.43;;;;;;;2.53;92.18;102004.34;5058909;27;96897;-31
2022/12/05 00:46:08;;;;;;;6.85;4.10;;;;;;;2.53;92.07;101998.13;5076761;27;97793;-31
2022/12/05 00:48:35;;;;;;;8.73;4.57;;;;;;;2.57;91.93;101996.28;5057864;27;102453;-31
2022/12/05 00:51:10;;;;;;;11.93;3.47;;;;;;;2.58;92.00;101995.41;5057794;27;96554;-30
2022/12/05 00:53:36;;;;;;;6.95;5.20;;;;;;;2.55;92.36;101991.84;5058147;27;96860;-31
2022/12/05 00:56:11;;;;;;;6.30;4.07;;;;;;;2.58;92.08;101984.72;5076503;27;97600;-31
2022/12/05 00:58:36;;;;;;;9.45;3.10;;;;;;;2.60;91.92;102001.59;5057728;27;100859;-32
2022/12/05 01:01:10;;;;;;;5.97;3.45;;;;;;;2.62;91.91;102002.47;5058038;27;96559;-31
2022/12/05 01:03:36;;;;;;;7.72;5.57;;;;;;;2.60;91.94;101996.25;5058031;27;96931;-30
2022/12/05 01:06:02;;;;;;;8.30;3.92;;;;;;;2.62;91.88;101998.03;5076317;27;97959;-31
2022/12/05 01:08:27;;;;;;;11.13;3.97;;;;;;;2.62;91.97;102000.72;5076631;27;97776;-31
2022/12/05 01:10:54;;;;;;;11.25;4.88;;;;;;;2.61;91.95;101998.03;5058191;27;96568;-31
2022/12/05 01:13:19;;;;;;;11.38;5.05;;;;;;;2.62;92.13;101987.34;5076490;27;96794;-32
2022/12/05 01:15:45;;;;;;;8.35;3.92;;;;;;;2.65;92.09;101986.41;5057085;27;98866;-32
2022/12/05 01:18:10;;;;;;;13.35;4.18;;;;;;;2.66;91.98;101990.84;5075290;27;103801;-31
2022/12/05 01:20:39;;;;;;;9.50;4.20;;;;;;;2.67;91.98;101992.59;5076397;27;96524;-30
2022/12/05 01:23:05;;;;;;;5.72;3.47;;;;;;;2.69;92.21;101993.47;5038328;27;96852;-32
2022/12/05 01:25:30;;;;;;;10.48;5.03;;;;;;;2.68;92.18;101984.56;5033619;28;100898;-31
2022/12/05 01:27:55;;;;;;;12.20;5.03;;;;;;;2.70;92.42;101987.25;5034918;27;109764;-30
2022/12/05 01:30:21;;;;;;;7.53;4.05;;;;;;;2.70;92.32;101989.91;5035620;28;96697;-31
2022/12/05 01:32:46;;;;;;;8.02;4.35;;;;;;;2.70;92.33;101993.47;5035364;27;96824;-31
2022/12/05 01:35:11;;;;;;;6.00;3.63;;;;;;;2.72;92.72;101993.47;5035553;28;97218;-31
2022/12/05 01:37:37;;;;;;;5.20;3.15;;;;;;;2.73;92.37;101997.91;5034988;27;97423;-30
2022/12/05 01:40:03;;;;;;;5.68;4.53;;;;;;;2.72;92.46;101989.00;5034639;27;96457;-31
2022/12/05 01:42:28;;;;;;;8.25;5.15;;;;;;;2.75;92.78;101998.78;5035305;27;96737;-32
2022/12/05 01:44:59;;;;;;;7.40;4.80;;;;;;;2.77;92.59;101994.31;5034958;27;98381;-31
2022/12/05 01:47:27;;;;;;;6.72;4.00;;;;;;;2.77;92.41;101996.97;5033258;28;101430;-30
2022/12/05 01:49:53;;;;;;;5.63;2.97;;;;;;;2.76;92.84;101992.50;5033821;28;96641;-32
2022/12/05 01:52:22;;;;;;;7.80;4.68;;;;;;;2.79;92.65;101984.47;5035079;27;96856;-31
2022/12/05 01:54:50;;;;;;;6.20;3.53;;;;;;;2.83;92.82;101993.34;5033241;28;101287;-32
2022/12/05 01:57:15;;;;;;;5.68;3.20;;;;;;;2.80;93.14;101996.06;5033670;28;101636;-31
2022/12/05 01:59:46;;;;;;;6.72;3.55;;;;;;;2.82;92.80;101986.22;5035062;28;96578;-31
2022/12/05 02:02:12;;;;;;;5.63;3.85;;;;;;;2.85;92.98;102000.44;5033756;28;96772;-31
2022/12/05 02:04:49;;;;;;;6.20;3.42;;;;;;;2.85;92.66;101995.09;5034245;28;97974;-31
2022/12/05 02:07:14;;;;;;;9.00;3.55;;;;;;;2.84;93.07;102001.34;5033250;28;101367;-32
2022/12/05 02:09:40;;;;;;;4.18;3.10;;;;;;;2.87;92.56;102009.34;5033422;28;96619;-30
2022/12/05 02:12:05;;;;;;;2.95;2.40;;;;;;;2.87;93.27;102004.00;5034978;28;96876;-32
2022/12/05 02:15:00;;;;;;;8.68;2.90;;;;;;;2.89;92.87;102007.53;5034489;28;98043;-31
2022/12/05 02:17:43;;;;;;;9.60;3.85;;;;;;;2.91;92.73;102007.53;4990831;27;97414;-31
2022/12/05 02:20:29;;;;;;;15.90;5.38;;;;;;;2.89;92.76;102002.19;5034642;28;96562;-31
2022/12/05 02:23:30;;;;;;;9.77;4.80;;;;;;;2.91;93.39;102002.19;5033041;27;96892;-31
2022/12/05 02:26:10;;;;;;;9.85;5.10;;;;;;;2.91;92.83;102002.19;5034544;27;97389;-32
2022/12/05 02:29:13;;;;;;;2.30;1.92;;;;;;;2.93;93.31;102001.25;5032838;28;100785;-32
2022/12/05 02:31:59;;;;;;;6.20;4.22;;;;;;;2.93;92.95;101995.00;5034215;28;96698;-31
2022/12/05 02:35:04;;;;;;;7.63;4.45;;;;;;;2.94;92.99;102000.34;5033205;28;96881;-32
2022/12/05 02:37:49;;;;;;;2.15;1.98;;;;;;;2.95;93.10;101999.44;4952673;28;97415;-31
2022/12/05 02:40:35;;;;;;;4.15;2.80;;;;;;;2.95;93.21;102002.09;5026283;28;101190;-31
2022/12/05 02:43:09;;;;;;;6.10;3.47;;;;;;;2.97;93.28;102000.31;5033209;28;96643;-31
2022/12/05 02:45:37;;;;;;;3.72;3.08;;;;;;;2.99;93.26;102000.28;5032991;28;96851;-31
2022/12/05 02:48:03;;;;;;;3.78;2.60;;;;;;;2.98;93.07;101993.19;5033954;27;99301;-31
2022/12/05 02:50:33;;;;;;;5.57;3.72;;;;;;;2.98;93.16;101996.75;5033106;27;100652;-31
2022/12/05 02:53:05;;;;;;;4.40;2.72;;;;;;;3.00;93.35;101995.81;5036991;27;96577;-32
2022/12/05 02:55:32;;;;;;;6.07;3.47;;;;;;;3.02;93.50;102010.06;5036666;28;96712;-31
2022/12/05 02:58:04;;;;;;;10.07;4.78;;;;;;;3.04;93.30;102005.59;5035686;28;101100;-31
2022/12/05 03:00:29;;;;;;;6.25;4.32;;;;;;;3.04;93.36;102016.31;5036447;28;100702;-31
2022/12/05 03:02:59;;;;;;;4.97;3.63;;;;;;;3.03;93.40;102011.84;5037674;28;96582;-31
2022/12/05 03:05:39;;;;;;;6.45;4.05;;;;;;;3.04;93.71;102009.16;5036200;28;96825;-30
2022/12/05 03:08:09;;;;;;;9.57;5.28;;;;;;;3.04;93.33;102002.91;5037527;27;97898;-30
2022/12/05 03:10:38;;;;;;;6.82;3.63;;;;;;;3.04;93.51;101997.56;5035575;28;101173;-32
2022/12/05 03:13:10;;;;;;;8.98;4.80;;;;;;;3.05;93.69;102002.91;5036041;28;96684;-31
2022/12/05 03:15:43;;;;;;;10.38;4.25;;;;;;;3.04;94.14;101997.56;5036578;28;96811;-31
2022/12/05 03:18:20;;;;;;;3.22;2.20;;;;;;;3.06;94.51;102004.66;5035186;28;101135;-31
2022/12/05 03:20:58;;;;;;;5.65;3.78;;;;;;;3.05;94.52;102010.94;5035839;28;100839;-31
2022/12/05 03:23:34;;;;;;;5.07;3.00;;;;;;;3.07;94.51;102009.09;5034882;27;96945;-30
2022/12/05 03:26:31;;;;;;;5.82;2.03;;;;;;;3.08;94.27;102010.03;5035939;28;96781;-31
2022/12/05 03:29:09;;;;;;;7.82;4.70;;;;;;;3.08;94.01;102010.91;5035565;28;101205;-30
2022/12/05 03:31:48;;;;;;;5.05;2.53;;;;;;;3.06;94.56;102009.16;5035359;28;100951;-31
2022/12/05 03:34:21;;;;;;;9.43;5.38;;;;;;;3.07;94.34;102008.22;5037430;27;96598;-31
2022/12/05 03:36:50;;;;;;;3.60;2.63;;;;;;;3.06;94.83;102012.69;5036007;28;96862;-31
2022/12/05 03:39:32;;;;;;;8.18;4.18;;;;;;;3.08;94.58;102000.19;5035419;28;101631;-31
2022/12/05 03:42:10;;;;;;;3.97;2.47;;;;;;;3.11;94.79;102010.84;5035640;28;100988;-32
2022/12/05 03:44:59;;;;;;;3.28;2.70;;;;;;;3.12;94.53;102012.66;5035781;27;96595;-31
2022/12/05 03:47:50;;;;;;;2.92;2.30;;;;;;;3.13;95.08;102019.75;5035275;28;96802;-31
2022/12/05 03:50:24;;;;;;;5.05;3.60;;;;;;;3.11;95.17;102010.84;5034488;28;101067;-32
2022/12/05 03:53:28;;;;;;;7.68;3.88;;;;;;;3.14;95.36;102026.00;5035193;28;101206;-30
2022/12/05 03:56:00;;;;;;;8.43;4.32;;;;;;;3.12;95.59;102011.72;4918984;28;96733;-31
2022/12/05 03:58:35;;;;;;;6.35;3.35;;;;;;;3.14;95.58;102028.66;5018483;28;96906;-32
2022/12/05 04:01:06;;;;;;;4.72;3.50;;;;;;;3.14;95.88;102032.22;5036407;27;99481;-30
2022/12/05 04:03:41;;;;;;;6.88;3.67;;;;;;;3.16;95.15;102024.19;5035352;27;101165;-31
2022/12/05 04:06:22;;;;;;;8.82;3.58;;;;;;;3.18;95.21;102025.06;5035425;28;96508;-31
2022/12/05 04:08:53;;;;;;;4.88;2.67;;;;;;;3.17;95.72;102034.88;5037278;28;96482;-32
2022/12/05 04:11:23;;;;;;;6.47;3.43;;;;;;;3.14;95.52;102032.22;5034904;28;101205;-31
2022/12/05 04:13:52;;;;;;;9.85;3.72;;;;;;;3.16;95.71;102046.47;5034903;28;101408;-31
2022/12/05 04:19:18;;;;;;;4.53;2.92;;;;;;;3.19;95.90;102041.13;5036434;28;96697;-31
2022/12/05 04:21:51;;;;;;;11.65;3.33;;;;;;;3.19;96.08;102038.44;5034384;27;101153;-31
2022/12/05 04:27:21;;;;;;;6.03;3.08;;;;;;;3.24;96.13;102041.03;5036796;28;97921;-30
2022/12/05 04:30:01;;;;;;;5.38;3.13;;;;;;;3.25;95.99;102031.22;5036071;28;96649;-31
2022/12/05 04:32:33;;;;;;;8.82;5.05;;;;;;;3.23;95.96;102028.56;5034472;28;100818;-31
2022/12/05 04:35:05;;;;;;;3.92;2.85;;;;;;;3.24;96.23;102035.66;5034923;28;101206;-31
2022/12/05 04:37:38;;;;;;;3.00;2.47;;;;;;;3.24;96.49;102037.47;5034881;28;96544;-30
2022/12/05 04:40:12;;;;;;;6.13;3.05;;;;;;;3.26;96.38;102035.66;5034925;28;96755;-33
2022/12/05 04:42:41;;;;;;;5.85;3.70;;;;;;;3.25;96.23;102033.91;5034035;28;99236;-32
2022/12/05 04:45:10;;;;;;;5.43;2.92;;;;;;;3.25;96.68;102026.75;5034445;28;101019;-31
2022/12/05 04:47:41;;;;;;;7.85;4.18;;;;;;;3.27;96.02;102026.75;5034743;28;96635;-31
2022/12/05 04:50:10;;;;;;;8.15;3.72;;;;;;;3.28;96.20;102024.03;5034650;28;96845;-32
2022/12/05 04:52:37;;;;;;;3.53;2.60;;;;;;;3.29;96.08;102025.81;5035453;27;97860;-31
2022/12/05 04:55:14;;;;;;;4.82;2.92;;;;;;;3.32;96.05;102025.78;5034252;28;101180;-30
2022/12/05 04:57:59;;;;;;;5.78;4.15;;;;;;;3.31;96.03;102029.38;5035902;27;96456;-30
2022/12/05 05:00:26;;;;;;;5.00;3.47;;;;;;;3.32;95.70;102033.81;5034872;28;96669;-30
2022/12/05 05:03:04;;;;;;;6.57;3.47;;;;;;;3.34;95.88;102031.13;5034194;28;100924;-30
2022/12/05 05:05:31;;;;;;;4.05;2.80;;;;;;;3.36;96.16;102031.97;5033875;28;100876;-30
2022/12/05 05:07:56;;;;;;;6.00;4.07;;;;;;;3.35;96.18;102024.84;5033826;28;96557;-31
2022/12/05 05:10:32;;;;;;;6.20;3.55;;;;;;;3.37;96.20;102031.94;5035642;27;96762;-31
2022/12/05 05:12:58;;;;;;;5.53;3.80;;;;;;;3.36;95.88;102027.50;5033825;28;99000;-31
2022/12/05 05:15:23;;;;;;;2.38;2.05;;;;;;;3.38;96.19;102031.06;5034867;28;97982;-31
2022/12/05 05:17:48;;;;;;;4.75;3.03;;;;;;;3.36;95.86;102024.84;5035392;27;96765;-31
2022/12/05 05:20:23;;;;;;;2.55;2.30;;;;;;;3.38;96.34;102031.06;5034685;27;100265;-31
2022/12/05 05:22:53;;;;;;;4.82;3.17;;;;;;;3.38;96.14;102033.75;5061786;27;97974;-31
2022/12/05 05:25:19;;;;;;;6.47;3.10;;;;;;;3.39;96.57;102038.19;5057808;27;100803;-31
2022/12/05 05:27:53;;;;;;;4.32;2.92;;;;;;;3.40;96.29;102031.91;5057747;27;96513;-31
2022/12/05 05:30:19;;;;;;;4.78;2.83;;;;;;;3.39;96.63;102043.53;5057442;27;96812;-31
2022/12/05 05:32:45;;;;;;;9.52;3.65;;;;;;;3.40;96.39;102045.28;5056889;27;101388;-32
2022/12/05 05:35:11;;;;;;;10.77;3.72;;;;;;;3.42;96.57;102044.41;5076059;27;97806;-31
2022/12/05 05:37:37;;;;;;;5.75;3.67;;;;;;;3.43;96.38;102054.19;5057680;27;96603;-30
2022/12/05 05:40:04;;;;;;;11.75;3.45;;;;;;;3.43;96.70;102047.03;5076280;27;96795;-31
2022/12/05 05:42:30;;;;;;;4.22;2.45;;;;;;;3.45;96.48;102055.06;5056986;27;101558;-31
2022/12/05 05:44:55;;;;;;;5.13;3.40;;;;;;;3.46;96.67;102049.72;5075649;27;104097;-31
2022/12/05 05:47:20;;;;;;;3.65;2.47;;;;;;;3.46;96.90;102051.50;5075922;27;96476;-31
2022/12/05 05:49:46;;;;;;;6.25;3.83;;;;;;;3.44;96.85;102046.16;5076096;27;96885;-31
2022/12/05 05:52:11;;;;;;;10.50;4.15;;;;;;;3.46;96.60;102049.72;5075297;27;105347;-31
2022/12/05 05:54:36;;;;;;;4.85;2.75;;;;;;;3.48;96.31;102047.00;5075558;27;97472;-32
2022/12/05 05:57:02;;;;;;;5.53;3.00;;;;;;;3.49;96.42;102051.47;5075335;27;96645;-30
2022/12/05 05:59:27;;;;;;;6.05;2.72;;;;;;;3.51;96.19;102046.97;5075269;27;96836;-31
2022/12/05 06:01:53;;;;;;;5.93;2.83;;;;;;;3.51;96.77;102046.97;5057242;27;97893;-32
2022/12/05 06:04:18;;;;;;;3.15;2.70;;;;;;;3.51;96.78;102049.66;5074968;27;112331;-31
2022/12/05 06:06:43;;;;;;;2.45;1.88;;;;;;;3.51;96.61;102049.66;5075430;27;96457;-30
2022/12/05 06:09:09;;;;;;;4.55;2.85;;;;;;;3.53;96.97;102050.53;5057336;27;97022;-31
2022/12/05 06:11:34;;;;;;;5.10;3.13;;;;;;;3.51;96.72;102049.66;5075449;27;97913;-32
2022/12/05 06:14:02;;;;;;;9.60;4.80;;;;;;;3.51;96.93;102049.66;5075523;27;97827;-31
2022/12/05 06:16:30;;;;;;;6.50;3.33;;;;;;;3.52;96.97;102054.97;5075359;27;96540;-31
2022/12/05 06:18:55;;;;;;;5.15;2.72;;;;;;;3.54;97.16;102052.28;5075161;27;96774;-31
2022/12/05 06:21:21;;;;;;;5.50;3.22;;;;;;;3.55;97.08;102052.28;5074655;27;97945;-31
2022/12/05 06:23:47;;;;;;;7.82;4.80;;;;;;;3.56;96.88;102056.72;5074913;27;97686;-30
2022/12/05 06:26:15;;;;;;;6.85;3.80;;;;;;;3.57;96.97;102058.47;5057270;27;96700;-30
2022/12/05 06:28:42;;;;;;;5.38;3.55;;;;;;;3.58;96.50;102060.25;5060459;27;96766;-30
2022/12/05 06:31:09;;;;;;;6.28;3.42;;;;;;;3.59;97.36;102055.78;5060160;27;100966;-30
2022/12/05 06:33:35;;;;;;;7.30;3.53;;;;;;;3.63;97.27;102052.16;5060050;27;101241;-31
2022/12/05 06:36:06;;;;;;;4.07;2.80;;;;;;;3.61;97.05;102056.66;5060604;27;96659;-31
2022/12/05 06:38:31;;;;;;;5.45;3.33;;;;;;;3.64;97.17;102058.41;5079649;27;96608;-31
2022/12/05 06:40:56;;;;;;;6.50;2.17;;;;;;;3.65;97.18;102061.06;5078699;27;97842;-31
2022/12/05 06:43:22;;;;;;;5.68;2.90;;;;;;;3.65;96.89;102060.16;5078437;27;97744;-31
2022/12/05 06:45:47;;;;;;;7.18;3.95;;;;;;;3.65;97.04;102060.16;5078374;27;96521;-31
2022/12/05 06:48:13;;;;;;;3.05;2.25;;;;;;;3.64;97.26;102055.72;5078553;27;96826;-31
2022/12/05 06:50:38;;;;;;;6.50;3.58;;;;;;;3.66;97.69;102057.47;5078447;27;97313;-31
2022/12/05 06:53:03;;;;;;;7.97;3.17;;;;;;;3.67;97.19;102071.75;5078286;27;104461;-31
2022/12/05 06:55:28;;;;;;;7.60;2.13;;;;;;;3.66;97.19;102068.19;5078825;27;96536;-30
2022/12/05 06:57:54;;;;;;;4.43;2.70;;;;;;;3.71;97.51;102074.38;5078812;27;96807;-31
2022/12/05 07:03:03;;;;;;;7.38;3.70;;;;;;;3.73;97.48;102075.25;5079034;27;97045;-31
2022/12/05 07:05:28;;;;;;;8.18;2.72;;;;;;;3.73;97.48;102069.88;5078730;27;96694;-30
2022/12/05 07:07:54;;;;;;;6.60;3.55;;;;;;;3.75;97.03;102083.28;5078436;27;96833;-30
2022/12/05 07:10:19;;;;;;;5.57;3.53;;;;;;;3.76;97.26;102083.22;5077512;27;97921;-31
2022/12/05 07:12:44;;;;;;;4.68;2.85;;;;;;;3.78;97.10;102086.78;5078082;27;97565;-31
2022/12/05 07:15:10;;;;;;;8.55;4.13;;;;;;;3.76;97.42;102082.34;5078472;27;96577;-32
2022/12/05 07:17:37;;;;;;;5.85;3.03;;;;;;;3.77;97.20;102082.34;5077769;27;96799;-30
2022/12/05 07:20:07;;;;;;;11.93;4.50;;;;;;;3.81;97.00;102086.75;5059157;27;101037;-30
2022/12/05 07:22:34;;;;;;;7.22;4.30;;;;;;;3.82;97.13;102085.84;5058469;27;100403;-30
2022/12/05 07:25:00;;;;;;;6.78;3.45;;;;;;;3.84;97.35;102085.81;5058460;27;96635;-30
2022/12/05 07:27:25;;;;;;;5.97;3.05;;;;;;;3.85;97.12;102098.31;5077686;27;96753;-31
2022/12/05 07:29:50;;;;;;;4.93;3.38;;;;;;;3.84;97.27;102096.56;5076494;27;99354;-30
2022/12/05 07:32:16;;;;;;;7.13;2.75;;;;;;;3.87;97.02;102090.25;5076603;27;103702;-31
2022/12/05 07:34:41;;;;;;;5.85;3.00;;;;;;;3.87;96.86;102099.19;5076453;27;97724;-31
2022/12/05 07:37:07;;;;;;;8.40;4.22;;;;;;;3.91;97.33;102097.31;5076474;27;96798;-31
2022/12/05 07:39:32;;;;;;;4.85;2.72;;;;;;;3.91;96.78;102097.31;5076121;27;98913;-30
2022/12/05 07:41:58;;;;;;;5.55;3.63;;;;;;;3.94;96.77;102097.31;5076372;27;99542;-30
2022/12/05 07:44:23;;;;;;;3.40;2.42;;;;;;;3.93;97.18;102093.75;5076527;27;96639;-31
2022/12/05 07:46:48;;;;;;;5.43;3.67;;;;;;;3.94;97.24;102094.63;5076480;27;97675;-30
2022/12/05 07:49:14;;;;;;;4.38;3.40;;;;;;;3.96;97.02;102100.84;5076534;27;98684;-32
2022/12/05 07:51:40;;;;;;;8.23;3.97;;;;;;;3.99;97.48;102112.41;5076694;27;97335;-30
2022/12/05 07:54:06;;;;;;;2.95;2.05;;;;;;;3.98;97.34;102102.59;5057769;27;96745;-31
2022/12/05 07:56:31;;;;;;;8.95;3.67;;;;;;;3.99;97.53;102107.03;5076614;27;96742;-31
2022/12/05 07:58:57;;;;;;;9.05;3.78;;;;;;;4.02;97.54;102108.78;5075855;27;97324;-31
2022/12/05 08:01:27;;;;;;;9.40;3.00;;;;;;;4.01;97.26;102102.56;5076357;27;97952;-30
2022/12/05 08:03:55;;;;;;;7.50;3.03;;;;;;;4.03;96.82;102108.78;5057828;27;96706;-30
2022/12/05 08:06:23;;;;;;;8.25;4.28;;;;;;;4.07;97.22;102106.06;5076296;27;96846;-30
2022/12/05 08:08:50;;;;;;;2.97;2.35;;;;;;;4.07;97.25;102106.94;5075690;27;99366;-30
2022/12/05 08:11:20;;;;;;;9.23;3.05;;;;;;;4.11;97.24;102114.03;5057390;27;100841;-31
2022/12/05 08:13:46;;;;;;;4.63;2.50;;;;;;;4.11;97.21;102107.78;5076410;27;96624;-31
2022/12/05 08:16:15;;;;;;;9.75;3.97;;;;;;;4.12;97.26;102115.78;5058196;27;96984;-31
2022/12/05 08:18:42;;;;;;;6.95;2.83;;;;;;;4.14;97.29;102119.34;5056875;27;103966;-31
2022/12/05 08:21:10;;;;;;;6.95;3.53;;;;;;;4.18;97.00;102122.88;5057011;27;99281;-31
2022/12/05 08:23:37;;;;;;;8.07;3.50;;;;;;;4.16;97.40;102114.84;5015661;27;1183093;-30
2022/12/05 08:26:05;;;;;;;5.45;3.42;;;;;;;4.20;97.50;102121.94;5058812;27;96826;-30
2022/12/05 08:28:31;;;;;;;3.78;2.15;;;;;;;4.20;97.50;102113.91;5058382;27;100815;-32
2022/12/05 08:31:03;;;;;;;7.10;3.63;;;;;;;4.25;97.13;102116.53;5076796;27;97535;-30
2022/12/05 08:33:28;;;;;;;;;;;;;;;4.26;97.55;102124.50;5059042;27;96588;-30
2022/12/05 08:35:54;;;;;;;2.38;1.73;;;;;;;4.29;97.80;102120.03;5078790;27;96867;-31
2022/12/05 08:38:19;;;;;;;5.53;2.95;;;;;;;4.28;97.81;102129.00;5096506;27;105958;-30
2022/12/05 08:40:46;;;;;;;5.47;2.42;;;;;;;4.30;97.72;102130.75;5097667;27;100104;-30
2022/12/05 08:43:12;;;;;;;2.58;1.77;;;;;;;4.33;97.36;102130.69;5097637;27;96538;-30
2022/12/05 08:45:37;;;;;;;8.13;3.63;;;;;;;4.33;97.52;102124.44;5097851;27;96772;-30
2022/12/05 08:48:02;;;;;;;4.72;2.70;;;;;;;4.33;97.47;102129.81;5096748;27;98196;-31
2022/12/05 08:50:28;;;;;;;2.90;2.45;;;;;;;4.37;97.06;102145.84;5095853;27;98672;-30
2022/12/05 08:52:53;;;;;;;4.45;2.95;;;;;;;4.39;97.24;102135.09;5097163;27;97422;-31
2022/12/05 08:55:18;;;;;;;3.03;2.15;;;;;;;4.36;97.51;102141.41;5097165;27;96807;-30
2022/12/05 08:57:44;;;;;;;2.80;2.25;;;;;;;4.39;97.66;102138.66;5096791;27;99555;-31
2022/12/05 09:00:09;;;;;;;5.43;3.85;;;;;;;4.41;97.38;102146.66;5097388;27;97371;-32
2022/12/05 09:02:35;;;;;;;3.65;2.55;;;;;;;4.41;97.47;102141.28;5097276;27;96627;-30
2022/12/05 09:05:00;;;;;;;4.55;3.15;;;;;;;4.44;96.93;102152.88;5097444;27;96845;-31
2022/12/05 09:07:25;;;;;;;4.80;2.38;;;;;;;4.44;97.47;102141.28;5096717;27;105127;-31
2022/12/05 09:09:51;;;;;;;7.05;3.63;;;;;;;4.48;97.51;102145.66;5096725;27;98997;-31
2022/12/05 09:12:16;;;;;;;4.32;3.03;;;;;;;4.48;97.25;102145.66;5096544;27;96695;-31
2022/12/05 09:14:41;;;;;;;9.93;2.45;;;;;;;4.50;96.89;102149.19;5097009;27;96796;-30
2022/12/05 09:17:07;;;;;;;7.93;2.25;;;;;;;4.49;97.54;102143.88;5096779;27;97533;-32
2022/12/05 09:19:32;;;;;;;5.72;2.38;;;;;;;4.50;97.15;102151.00;5096027;27;97824;-30
2022/12/05 09:21:57;;;;;;;5.32;3.10;;;;;;;4.52;96.95;102147.38;5077554;27;97135;-31
2022/12/05 09:24:23;;;;;;;4.15;2.55;;;;;;;4.54;97.04;102150.94;5078394;27;96776;-31
2022/12/05 09:26:49;;;;;;;4.95;3.22;;;;;;;4.54;97.40;102159.00;5096533;27;97405;-31
2022/12/05 09:29:15;;;;;;;3.75;2.53;;;;;;;4.58;97.29;102160.72;5078106;27;100855;-31
2022/12/05 09:31:41;;;;;;;5.25;2.47;;;;;;;4.57;97.26;102166.09;5096505;27;96630;-31
2022/12/05 09:34:08;;;;;;;5.65;2.90;;;;;;;4.57;97.25;102164.31;5096655;27;96779;-31
2022/12/05 09:36:33;;;;;;;2.40;1.48;;;;;;;4.59;97.10;102165.16;5077261;27;101370;-30
2022/12/05 09:39:01;;;;;;;2.80;2.05;;;;;;;4.57;97.36;102163.41;5096186;27;99173;-30
2022/12/05 09:44:31;;;;;;;7.00;2.38;;;;;;;4.61;97.30;102174.09;5096319;27;96807;-31
2022/12/05 09:47:07;;;;;;;4.18;2.65;;;;;;;4.61;96.66;102175.88;5096429;27;97394;-30
2022/12/05 09:49:37;;;;;;;5.80;2.15;;;;;;;4.62;97.29;102180.31;5077560;27;100624;-30
2022/12/05 09:52:03;;;;;;;3.88;2.83;;;;;;;4.62;97.29;102173.19;5077804;27;96554;-31
2022/12/05 09:54:30;;;;;;;6.18;3.22;;;;;;;4.64;97.05;102181.19;5078257;27;96839;-31
2022/12/05 09:56:57;;;;;;;5.65;2.85;;;;;;;4.67;96.93;102184.75;5077410;27;100951;-31
2022/12/05 09:59:22;;;;;;;3.78;2.58;;;;;;;4.70;97.17;102188.28;5077309;27;101625;-31
2022/12/05 10:02:23;;;;;;;4.38;3.08;;;;;;;4.71;96.92;102176.63;5095487;27;96544;-31
2022/12/05 10:04:57;;;;;;;9.90;2.55;;;;;;;4.72;96.97;102181.06;5096373;27;96585;-31
2022/12/05 10:07:47;;;;;;;4.78;2.97;;;;;;;4.77;96.79;102174.75;5076958;27;100719;-31
2022/12/05 10:10:37;;;;;;;3.53;2.13;;;;;;;4.78;96.90;102186.34;5095853;27;99891;-30
2022/12/05 10:13:08;;;;;;;3.80;2.28;;;;;;;4.79;97.04;102174.69;5096372;27;96621;-30
2022/12/05 10:15:56;;;;;;;2.90;2.38;;;;;;;4.79;97.21;102183.66;5096082;27;96600;-31
2022/12/05 10:18:42;;;;;;;6.50;2.75;;;;;;;4.80;96.85;102180.06;5076934;27;100920;-31
2022/12/05 10:21:07;;;;;;;4.38;2.55;;;;;;;4.81;96.99;102180.94;5077627;27;101425;-30
2022/12/05 10:23:56;;;;;;;4.63;2.60;;;;;;;4.81;97.00;102176.44;5095476;27;96448;-31
2022/12/05 10:26:27;;;;;;;3.00;2.15;;;;;;;4.79;96.69;102177.38;5077442;27;96768;-30
2022/12/05 10:29:24;;;;;;;1.98;1.70;;;;;;;4.82;97.27;102183.59;5076497;27;101003;-30
2022/12/05 10:31:53;;;;;;;5.00;1.98;;;;;;;4.81;96.78;102181.81;5095810;27;97768;-31
2022/12/05 10:34:33;;;;;;;3.67;2.67;;;;;;;4.84;96.86;102183.59;5095616;27;96522;-31
2022/12/05 10:37:22;;;;;;;4.00;1.65;;;;;;;4.85;96.79;102174.59;5095946;27;96749;-30
2022/12/05 10:39:49;;;;;;;1.25;1.05;;;;;;;4.83;97.33;102176.44;5095502;27;98465;-31
2022/12/05 10:42:24;;;;;;;2.28;1.88;;;;;;;4.87;96.79;102180.84;5076895;27;100711;-30
2022/12/05 10:44:55;;;;;;;2.58;1.83;;;;;;;4.83;96.35;102173.75;5096061;27;96680;-31
2022/12/05 10:47:21;;;;;;;11.32;1.77;;;;;;;4.88;96.89;102174.53;5077529;27;96693;-30
2022/12/05 10:49:47;;;;;;;3.72;1.80;;;;;;;4.86;96.69;102169.22;5095486;27;98102;-31
2022/12/05 10:52:13;;;;;;;3.25;1.92;;;;;;;4.88;96.68;102171.88;5095388;27;98024;-30
2022/12/05 10:54:44;;;;;;;4.55;2.00;;;;;;;4.93;97.10;102169.09;5076648;27;96551;-30
2022/12/05 10:57:25;;;;;;;1.02;0.88;;;;;;;4.92;97.27;102170.03;5077111;27;96607;-30
2022/12/05 10:59:50;;;;;;;2.95;2.03;;;;;;;4.92;97.44;102164.66;5076530;27;101018;-30
2022/12/05 11:02:23;;;;;;;4.05;1.95;;;;;;;4.92;97.20;102168.22;5094976;27;99161;-30
2022/12/05 11:04:49;;;;;;;4.38;2.08;;;;;;;4.92;96.91;102161.97;5077070;27;96521;-30
2022/12/05 11:07:31;;;;;;;2.33;1.63;;;;;;;4.92;97.47;102168.22;5095645;27;96755;-30
2022/12/05 11:09:58;;;;;;;;;;;;;;;4.93;97.44;102163.72;5095370;27;101964;-31
2022/12/05 11:12:44;;;;;;;1.67;1.35;;;;;;;4.93;97.24;102164.63;5096080;27;98218;-31
2022/12/05 11:15:15;;;;;;;1.27;1.02;;;;;;;4.97;97.26;102168.16;5098402;27;96521;-32
2022/12/05 11:17:41;;;;;;;2.78;1.88;;;;;;;4.94;97.43;102169.09;5098696;27;96688;-31
2022/12/05 11:20:19;;;;;;;5.85;2.08;;;;;;;4.95;97.22;102164.59;5079322;27;100892;-30
2022/12/05 11:22:46;;;;;;;2.67;1.58;;;;;;;4.96;97.92;102167.28;5098363;27;97894;-30
2022/12/05 11:25:40;;;;;;;2.28;1.83;;;;;;;4.97;97.66;102163.66;5099024;27;96560;-31
2022/12/05 11:28:28;;;;;;;1.02;0.82;;;;;;;4.99;97.97;102169.91;5076282;27;96862;-30
2022/12/05 11:31:13;;;;;;;2.75;1.83;;;;;;;5.00;97.85;102168.09;5079796;27;101363;-31
2022/12/05 11:33:38;;;;;;;4.85;3.20;;;;;;;4.99;97.69;102169.00;5098405;27;97863;-32
2022/12/05 11:36:19;;;;;;;2.83;2.17;;;;;;;5.03;97.94;102170.72;5098737;27;96465;-30
2022/12/05 11:38:45;;;;;;;1.67;1.33;;;;;;;5.00;97.79;102177.03;5080532;27;96652;-30
2022/12/05 11:41:36;;;;;;;2.00;1.80;;;;;;;5.02;97.87;102168.94;5098120;27;97838;-31
2022/12/05 11:44:18;;;;;;;2.13;0.90;;;;;;;5.02;97.89;102166.25;5065225;27;99735;-30
2022/12/05 11:47:15;;;;;;;1.83;1.20;;;;;;;5.06;98.06;102166.19;5098287;27;96733;-31
2022/12/05 11:50:11;;;;;;;1.88;1.45;;;;;;;5.04;98.11;102157.28;5098568;27;96663;-30
2022/12/05 11:53:06;;;;;;;2.78;1.35;;;;;;;5.08;97.92;102169.75;5079231;27;100992;-30
2022/12/05 11:55:39;;;;;;;3.72;1.45;;;;;;;5.08;97.99;102164.38;5097914;27;98946;-30
2022/12/05 11:58:25;;;;;;;2.60;1.70;;;;;;;5.09;97.89;102165.25;5098594;27;96410;-31
2022/12/05 12:00:50;;;;;;;3.65;2.15;;;;;;;5.14;97.78;102174.09;5079833;27;96671;-30